Time;durP1;ratioP1;P1;durP2;ratioP2;P2;SDS_P1;SDS_P2;PMS_P1;PMS_P2;Temp;Humidity;BMP_temperature;BMP_pressure;BME280_temperature;BME280_humidity;BME280_pressure;Samples;Min_cycle;Max_cycle;Signal;HPM_P1;HPM_P2
2023/02/26 00:01:23;;;;;;;0.70;0.70;;;;;;;8.15;90.66;96011.44;5023834;28;20198;-56
2023/02/26 00:03:51;;;;;;;0.60;0.60;;;;;;;8.32;89.72;96021.88;5023945;28;20081;-58
2023/02/26 00:06:18;;;;;;;0.70;0.70;;;;;;;6.04;88.19;95650.47;5023862;28;20057;-57
2023/02/26 00:08:45;;;;;;;0.80;0.80;;;;;;;8.53;87.55;96024.03;5023614;28;20311;-55
2023/02/26 00:11:12;;;;;;;0.65;0.65;;;;;;;8.55;86.98;96032.72;5023445;28;20092;-56
2023/02/26 00:13:41;;;;;;;0.63;0.63;;;;;;;8.52;85.82;96039.00;5023490;28;20156;-58
2023/02/26 00:16:23;;;;;;;0.70;0.70;;;;;;;8.16;85.17;96035.09;5023470;28;20050;-56
2023/02/26 00:18:50;;;;;;;0.70;0.70;;;;;;;7.56;87.54;95990.34;5023311;28;20100;-57
2023/02/26 00:21:19;;;;;;;0.60;0.60;;;;;;;7.97;87.89;96040.78;5022197;28;20152;-58
2023/02/26 00:23:46;;;;;;;0.70;0.70;;;;;;;8.03;87.85;96038.50;5022481;28;20053;-57
2023/02/26 00:26:13;;;;;;;0.73;0.73;;;;;;;8.02;87.64;96028.63;5023734;28;20128;-55
2023/02/26 00:28:41;;;;;;;0.60;0.60;;;;;;;7.81;87.98;96025.66;5023455;28;20103;-55
2023/02/26 00:31:08;;;;;;;0.60;0.60;;;;;;;5.95;92.30;95864.31;5023616;28;20053;-55
2023/02/26 00:33:35;;;;;;;0.60;0.60;;;;;;;6.90;92.34;95968.28;5023737;28;20064;-58
2023/02/26 00:36:19;;;;;;;0.60;0.60;;;;;;;7.51;90.92;96040.28;5023433;28;20072;-57
2023/02/26 00:38:58;;;;;;;0.60;0.60;;;;;;;7.54;89.56;96045.03;5023366;28;20128;-58
2023/02/26 00:41:25;;;;;;;0.68;0.68;;;;;;;7.42;90.24;96026.00;5023285;28;20107;-55
2023/02/26 00:43:52;;;;;;;0.68;0.68;;;;;;;7.57;88.57;96033.25;5023302;28;20080;-55
2023/02/26 00:46:48;;;;;;;0.60;0.60;;;;;;;7.47;89.22;96036.69;5022642;28;20501;-56
2023/02/26 00:49:27;;;;;;;0.70;0.70;;;;;;;7.41;90.54;96038.16;5022632;28;20057;-55
2023/02/26 00:51:58;;;;;;;0.60;0.60;;;;;;;7.51;90.22;96034.75;5022471;28;20065;-56
2023/02/26 00:54:27;;;;;;;0.60;0.60;;;;;;;7.34;90.94;96027.06;5022282;28;20080;-56
2023/02/26 00:56:56;;;;;;;0.60;0.60;;;;;;;7.39;91.36;96029.50;5023696;28;20041;-58
2023/02/26 00:59:24;;;;;;;0.60;0.60;;;;;;;7.27;92.96;96012.41;5025382;28;20057;-57
2023/02/26 01:01:51;;;;;;;0.60;0.60;;;;;;;7.39;93.59;96015.72;5026674;28;20159;-56
2023/02/26 01:04:21;;;;;;;0.60;0.60;;;;;;;7.00;93.57;95962.09;5026797;28;20061;-58
2023/02/26 01:06:52;;;;;;;0.60;0.60;;;;;;;7.46;93.84;96015.78;5026612;28;20053;-56
2023/02/26 01:09:26;;;;;;;0.60;0.60;;;;;;;6.89;93.65;95914.38;5025251;28;20057;-57
2023/02/26 01:12:02;;;;;;;0.70;0.70;;;;;;;7.04;94.45;95931.88;5026736;28;20053;-57
2023/02/26 01:14:31;;;;;;;0.60;0.60;;;;;;;7.58;94.35;96009.25;5025426;28;20057;-57
2023/02/26 01:17:06;;;;;;;0.70;0.70;;;;;;;7.70;92.88;96014.50;5026048;28;20550;-57
2023/02/26 01:19:54;;;;;;;0.60;0.60;;;;;;;7.83;91.83;95995.72;5026495;28;20520;-58
2023/02/26 01:22:30;;;;;;;0.70;0.70;;;;;;;7.92;91.51;96021.06;5024884;28;20057;-58
2023/02/26 01:25:06;;;;;;;0.70;0.70;;;;;;;7.95;92.15;96003.75;5026838;28;20050;-56
2023/02/26 01:27:33;;;;;;;0.60;0.60;;;;;;;7.31;92.63;95920.41;5026965;28;20068;-55
2023/02/26 01:30:00;;;;;;;0.70;0.70;;;;;;;7.58;91.16;95963.22;5024876;28;20500;-55
2023/02/26 01:32:42;;;;;;;0.70;0.70;;;;;;;7.94;90.54;96007.66;5025054;28;20049;-55
2023/02/26 01:35:27;;;;;;;0.70;0.70;;;;;;;7.32;93.83;96021.13;5041465;28;20053;-57
2023/02/26 01:38:10;;;;;;;0.60;0.60;;;;;;;7.33;93.42;95964.88;5026112;28;20049;-56
2023/02/26 01:40:59;;;;;;;0.60;0.60;;;;;;;7.60;92.75;95988.41;5026366;28;20607;-57
2023/02/26 01:43:49;;;;;;;0.70;0.70;;;;;;;7.83;92.91;96006.75;5026254;28;20045;-57
2023/02/26 01:46:29;;;;;;;0.70;0.70;;;;;;;7.89;91.46;96006.03;5025609;28;20049;-56
2023/02/26 01:48:58;;;;;;;0.70;0.70;;;;;;;7.92;90.44;96001.75;5024780;28;20118;-57
2023/02/26 01:51:47;;;;;;;0.63;0.63;;;;;;;7.99;90.73;96004.56;5025840;28;20165;-58
2023/02/26 01:54:18;;;;;;;0.70;0.70;;;;;;;8.00;90.76;96000.66;5025532;28;20045;-55
2023/02/26 01:56:50;;;;;;;0.60;0.60;;;;;;;8.07;89.84;96003.47;5025752;28;20049;-57
2023/02/26 01:59:23;;;;;;;0.70;0.70;;;;;;;7.99;89.90;95988.81;5025945;28;20084;-55
2023/02/26 02:01:56;;;;;;;0.70;0.70;;;;;;;8.13;89.85;96002.75;5024415;28;20049;-58
2023/02/26 02:04:23;;;;;;;0.70;0.70;;;;;;;8.20;89.13;96010.28;5025846;28;20054;-57
2023/02/26 02:06:51;;;;;;;0.60;0.60;;;;;;;8.27;88.03;96015.91;5023925;28;20088;-56
2023/02/26 02:09:17;;;;;;;0.65;0.65;;;;;;;8.19;88.48;96022.53;5024871;28;20157;-58
2023/02/26 02:12:16;;;;;;;0.60;0.60;;;;;;;8.03;89.40;96010.94;5025756;28;20129;-59
2023/02/26 02:15:03;;;;;;;0.70;0.70;;;;;;;8.14;87.77;96011.81;5024238;28;20061;-57
2023/02/26 02:17:33;;;;;;;0.70;0.70;;;;;;;7.91;88.75;96008.41;5025516;28;20057;-58
2023/02/26 02:20:05;;;;;;;0.60;0.60;;;;;;;8.09;87.76;95995.63;5024223;28;20049;-57
2023/02/26 02:22:44;;;;;;;0.70;0.70;;;;;;;8.08;88.15;96016.09;5025413;28;20057;-60
2023/02/26 02:25:48;;;;;;;0.70;0.70;;;;;;;8.10;88.05;96022.81;5025493;28;20525;-57
2023/02/26 02:28:29;;;;;;;0.60;0.60;;;;;;;7.99;88.43;96004.56;5025110;28;20092;-57
2023/02/26 02:31:24;;;;;;;0.70;0.70;;;;;;;7.32;88.48;95929.44;5025033;28;20787;-58
2023/02/26 02:34:11;;;;;;;0.60;0.60;;;;;;;7.83;89.30;96013.06;5025098;28;20060;-59
2023/02/26 02:36:45;;;;;;;0.60;0.60;;;;;;;7.91;89.27;96016.69;5024548;28;20053;-55
2023/02/26 02:39:44;;;;;;;0.60;0.60;;;;;;;7.81;90.34;96031.19;5025209;28;20061;-57
2023/02/26 02:42:34;;;;;;;0.70;0.70;;;;;;;7.71;90.89;96016.09;5020904;28;20500;-55
2023/02/26 02:45:10;;;;;;;0.60;0.60;;;;;;;7.82;91.18;96016.22;5025200;28;20100;-55
2023/02/26 02:47:41;;;;;;;0.52;0.52;;;;;;;7.30;91.30;95940.84;5023117;28;20107;-57
2023/02/26 02:50:19;;;;;;;0.60;0.60;;;;;;;7.93;90.50;96028.94;5024709;28;20107;-58
2023/02/26 02:53:08;;;;;;;0.60;0.60;;;;;;;7.95;89.35;96025.81;5024726;28;20552;-58
2023/02/26 02:55:47;;;;;;;0.70;0.70;;;;;;;7.95;89.24;96025.81;5024330;28;20061;-60
2023/02/26 02:58:20;;;;;;;0.60;0.60;;;;;;;7.90;89.41;96034.41;5024733;28;20793;-57
2023/02/26 03:00:50;;;;;;;0.70;0.70;;;;;;;7.93;88.69;96041.94;5024806;28;20056;-57
2023/02/26 03:03:29;;;;;;;0.68;0.68;;;;;;;7.95;88.91;96039.59;5024503;28;20517;-60
2023/02/26 03:05:56;;;;;;;0.70;0.70;;;;;;;7.91;88.96;96041.50;5024478;28;20088;-61
2023/02/26 03:08:27;;;;;;;0.60;0.60;;;;;;;7.87;88.78;96040.69;5024182;28;20061;-59
2023/02/26 03:10:54;;;;;;;0.60;0.60;;;;;;;7.70;89.60;96040.09;5024411;28;20127;-57
2023/02/26 03:13:23;;;;;;;0.60;0.60;;;;;;;7.72;91.25;96048.81;5023025;28;20136;-59
2023/02/26 03:16:20;;;;;;;0.70;0.70;;;;;;;7.86;90.63;96044.59;5023930;28;20057;-59
2023/02/26 03:18:53;;;;;;;0.70;0.70;;;;;;;7.89;90.66;96049.38;5024431;28;20084;-57
2023/02/26 03:21:41;;;;;;;0.70;0.70;;;;;;;8.01;90.32;96038.06;5024685;28;20057;-58
2023/02/26 03:24:17;;;;;;;0.57;0.57;;;;;;;7.44;89.91;95941.03;5024333;28;20057;-56
2023/02/26 03:26:54;;;;;;;0.60;0.60;;;;;;;8.13;89.97;96043.31;5023850;28;20151;-56
2023/02/26 03:29:37;;;;;;;0.60;0.60;;;;;;;8.06;88.39;96032.22;5024570;28;20467;-58
2023/02/26 03:32:14;;;;;;;0.70;0.70;;;;;;;7.51;87.75;95941.06;5004951;28;20477;-57
2023/02/26 03:35:12;;;;;;;0.68;0.68;;;;;;;8.13;88.25;96044.13;5014375;28;20057;-58
2023/02/26 03:37:44;;;;;;;0.60;0.60;;;;;;;7.98;88.31;96055.38;5023959;28;20111;-56
2023/02/26 03:40:18;;;;;;;0.70;0.70;;;;;;;8.04;87.93;96040.06;5023882;28;20057;-59
2023/02/26 03:42:55;;;;;;;0.60;0.60;;;;;;;8.00;88.84;96036.50;5023837;28;20701;-59
2023/02/26 03:45:27;;;;;;;0.60;0.60;;;;;;;8.04;89.14;96037.31;5015368;28;20092;-58
2023/02/26 03:47:57;;;;;;;0.60;0.60;;;;;;;7.96;89.43;96025.44;5022908;28;20366;-56
2023/02/26 03:50:37;;;;;;;0.60;0.60;;;;;;;8.04;87.72;96018.03;5022572;28;20049;-56
2023/02/26 03:53:08;;;;;;;0.60;0.60;;;;;;;7.97;87.42;95990.38;5022740;28;20049;-59
2023/02/26 03:56:01;;;;;;;0.70;0.70;;;;;;;8.26;87.89;96030.88;5023468;28;20479;-57
2023/02/26 03:58:27;;;;;;;0.60;0.60;;;;;;;7.88;88.18;95987.13;5024065;28;20053;-59
2023/02/26 04:01:03;;;;;;;0.63;0.63;;;;;;;7.89;88.65;95970.22;5023893;28;20073;-59
2023/02/26 04:03:36;;;;;;;0.70;0.70;;;;;;;7.97;88.06;95973.81;5024303;28;20492;-56
2023/02/26 04:06:04;;;;;;;0.70;0.70;;;;;;;8.10;88.27;96013.75;5023790;28;20137;-57
2023/02/26 04:08:31;;;;;;;0.70;0.70;;;;;;;8.09;87.23;95984.59;5024056;28;20095;-59
2023/02/26 04:11:06;;;;;;;0.70;0.70;;;;;;;8.48;87.03;96032.66;5023333;28;20140;-59
2023/02/26 04:13:33;;;;;;;0.70;0.70;;;;;;;8.41;87.33;96016.03;5023723;28;20087;-59
2023/02/26 04:16:00;;;;;;;0.70;0.70;;;;;;;8.40;87.08;96031.00;5023715;28;20153;-57
2023/02/26 04:18:27;;;;;;;0.70;0.70;;;;;;;8.41;87.25;96038.13;5023311;28;20046;-60
2023/02/26 04:20:53;;;;;;;0.70;0.70;;;;;;;8.23;87.25;95993.03;5019177;28;20105;-59
2023/02/26 04:23:20;;;;;;;0.70;0.70;;;;;;;8.35;87.20;96029.38;5003485;28;20578;-59
2023/02/26 04:25:47;;;;;;;0.70;0.70;;;;;;;8.35;88.01;96023.88;5002501;28;20046;-56
2023/02/26 04:28:14;;;;;;;0.70;0.70;;;;;;;8.39;88.16;96023.91;5004235;28;20567;-56
2023/02/26 04:30:40;;;;;;;0.70;0.70;;;;;;;8.47;87.76;96028.31;5013196;28;20485;-59
2023/02/26 04:33:07;;;;;;;0.70;0.70;;;;;;;8.38;88.51;96041.63;5025568;28;20045;-59
2023/02/26 04:35:34;;;;;;;0.70;0.70;;;;;;;7.92;88.30;95987.97;5026868;28;20673;-60
2023/02/26 04:38:01;;;;;;;0.60;0.60;;;;;;;8.43;87.23;96041.28;5026883;28;20050;-57
2023/02/26 04:40:27;;;;;;;0.63;0.63;;;;;;;8.16;89.14;96053.59;5025734;28;20080;-58
2023/02/26 04:42:54;;;;;;;0.70;0.70;;;;;;;8.18;89.18;96051.25;5027336;28;20053;-59
2023/02/26 04:45:21;;;;;;;0.70;0.70;;;;;;;8.18;89.27;96054.81;5025350;28;20124;-59
2023/02/26 04:47:47;;;;;;;0.60;0.60;;;;;;;7.56;89.08;95960.03;5026853;28;20064;-58
2023/02/26 04:50:14;;;;;;;0.70;0.70;;;;;;;8.21;88.35;96056.00;5026897;28;20103;-58
2023/02/26 04:52:41;;;;;;;0.60;0.60;;;;;;;8.24;88.96;96058.03;5027037;28;20502;-59
2023/02/26 04:55:08;;;;;;;0.70;0.70;;;;;;;8.15;88.91;96063.03;5026999;28;20139;-58
2023/02/26 04:57:35;;;;;;;0.60;0.60;;;;;;;8.12;89.33;96055.53;5027077;28;20053;-56
2023/02/26 05:00:06;;;;;;;0.60;0.60;;;;;;;7.48;89.34;95994.19;5025549;28;20136;-57
2023/02/26 05:02:33;;;;;;;0.70;0.70;;;;;;;7.81;89.05;96020.91;5026831;28;20061;-61
2023/02/26 05:05:00;;;;;;;0.60;0.60;;;;;;;8.05;88.87;96055.44;5026587;28;20073;-59
2023/02/26 05:07:26;;;;;;;0.60;0.60;;;;;;;7.50;89.18;95982.78;5027113;28;20104;-58
2023/02/26 05:09:54;;;;;;;0.70;0.70;;;;;;;7.72;90.67;96037.78;5026767;28;20072;-59
2023/02/26 05:12:21;;;;;;;0.60;0.60;;;;;;;7.80;91.60;96049.66;5026482;28;20049;-57
2023/02/26 05:14:47;;;;;;;0.70;0.70;;;;;;;7.13;92.88;95963.44;5025047;28;20140;-56
2023/02/26 05:17:14;;;;;;;0.60;0.60;;;;;;;7.30;93.69;95995.91;5027428;28;20562;-59
2023/02/26 05:19:41;;;;;;;0.60;0.60;;;;;;;7.89;92.94;96065.94;5026550;28;20058;-58
2023/02/26 05:22:07;;;;;;;0.60;0.60;;;;;;;7.85;92.91;96070.59;5026435;28;20056;-58
2023/02/26 05:24:34;;;;;;;0.70;0.70;;;;;;;7.98;92.07;96069.97;5025799;28;20046;-59
2023/02/26 05:27:00;;;;;;;0.70;0.70;;;;;;;8.06;91.48;96079.09;5026684;28;20104;-58
2023/02/26 05:29:27;;;;;;;0.60;0.60;;;;;;;8.09;92.14;96072.84;5024576;28;20088;-59
2023/02/26 05:31:53;;;;;;;0.60;0.60;;;;;;;8.01;92.41;96068.41;5026568;28;20515;-56
2023/02/26 05:34:20;;;;;;;0.70;0.70;;;;;;;8.12;92.83;96052.78;5026066;28;20107;-58
2023/02/26 05:36:48;;;;;;;0.70;0.70;;;;;;;8.12;92.68;96058.28;5025854;28;20508;-59
2023/02/26 05:39:14;;;;;;;0.70;0.70;;;;;;;8.33;92.16;96061.28;5026209;28;20410;-58
2023/02/26 05:41:41;;;;;;;0.70;0.70;;;;;;;8.48;91.35;96065.75;5025652;28;20496;-58
2023/02/26 05:44:08;;;;;;;0.70;0.70;;;;;;;8.60;91.20;96066.25;5026238;28;20400;-60
2023/02/26 05:46:34;;;;;;;0.70;0.70;;;;;;;7.96;90.28;95972.25;5026182;28;20049;-56
2023/02/26 05:49:01;;;;;;;0.70;0.70;;;;;;;8.56;90.50;96067.41;5026178;28;20060;-60
2023/02/26 05:51:28;;;;;;;0.70;0.70;;;;;;;8.78;89.66;96081.03;5026136;28;20103;-56
2023/02/26 05:53:54;;;;;;;0.70;0.70;;;;;;;8.63;87.33;96073.00;5025714;28;20575;-56
2023/02/26 05:56:21;;;;;;;0.70;0.70;;;;;;;8.26;88.47;96070.28;5025652;28;20587;-56
2023/02/26 05:58:48;;;;;;;0.70;0.70;;;;;;;8.00;87.36;96006.19;5025751;28;20505;-58
2023/02/26 06:01:15;;;;;;;0.70;0.70;;;;;;;8.51;88.17;96092.59;5025702;28;20562;-59
2023/02/26 06:03:43;;;;;;;0.65;0.65;;;;;;;8.25;90.06;96084.47;5025301;28;20067;-56
2023/02/26 06:06:11;;;;;;;0.70;0.70;;;;;;;7.61;91.42;96017.56;5025614;28;20425;-59
2023/02/26 06:08:37;;;;;;;0.70;0.70;;;;;;;8.37;91.38;96071.19;5025667;28;20103;-59
2023/02/26 06:11:04;;;;;;;0.68;0.68;;;;;;;8.07;90.84;96020.00;5025232;28;20045;-57
2023/02/26 06:13:31;;;;;;;0.70;0.70;;;;;;;8.87;90.86;96083.44;5025278;28;20496;-57
2023/02/26 06:15:58;;;;;;;0.73;0.73;;;;;;;9.06;89.07;96066.63;5025373;28;20053;-59
2023/02/26 06:18:25;;;;;;;0.80;0.80;;;;;;;9.27;87.99;96075.06;5024451;28;20084;-56
2023/02/26 06:20:52;;;;;;;0.70;0.70;;;;;;;8.59;91.30;96077.69;5023849;28;20826;-56
2023/02/26 06:23:19;;;;;;;0.73;0.73;;;;;;;9.01;90.67;96100.13;4994746;28;20057;-56
2023/02/26 06:25:46;;;;;;;0.80;0.80;;;;;;;9.30;88.86;96067.97;4996754;28;20050;-58
2023/02/26 06:28:13;;;;;;;0.80;0.80;;;;;;;9.67;86.87;96099.78;4986147;28;20058;-58
2023/02/26 06:30:40;;;;;;;0.80;0.80;;;;;;;9.64;86.42;96023.13;4992179;28;20049;-59
2023/02/26 06:33:06;;;;;;;0.80;0.80;;;;;;;10.38;84.38;96101.66;5005063;28;20604;-56
2023/02/26 06:35:33;;;;;;;0.80;0.80;;;;;;;10.36;83.39;96034.81;5004861;28;20057;-58
2023/02/26 06:38:00;;;;;;;0.80;0.80;;;;;;;11.04;81.32;96100.16;5005566;28;20151;-58
2023/02/26 06:40:27;;;;;;;0.80;0.80;;;;;;;11.20;79.74;96102.50;5004794;28;20607;-59
2023/02/26 06:42:54;;;;;;;0.90;0.90;;;;;;;10.91;79.24;96023.38;5005345;28;20062;-59
2023/02/26 06:45:20;;;;;;;0.93;0.93;;;;;;;11.71;77.80;96097.31;5004730;28;20129;-58
2023/02/26 06:47:47;;;;;;;0.93;0.93;;;;;;;11.77;77.25;96071.53;5004850;28;20435;-59
2023/02/26 06:50:14;;;;;;;0.90;0.90;;;;;;;12.14;77.07;96090.41;5003966;28;20521;-56
2023/02/26 06:52:40;;;;;;;1.00;1.00;;;;;;;12.22;76.05;96075.28;5020522;28;20454;-56
2023/02/26 06:55:08;;;;;;;0.90;0.90;;;;;;;12.42;75.41;96089.47;5003967;28;20156;-59
2023/02/26 06:57:35;;;;;;;1.00;1.00;;;;;;;12.37;75.98;96087.13;5004061;28;20085;-56
2023/02/26 07:00:03;;;;;;;1.00;1.00;;;;;;;12.55;76.15;96094.16;4998178;28;20045;-61
2023/02/26 07:02:29;;;;;;;1.00;1.00;;;;;;;12.61;75.91;96062.00;5004694;28;20064;-59
2023/02/26 07:04:56;;;;;;;0.95;0.95;;;;;;;12.60;76.08;96045.72;5004700;28;20069;-59
2023/02/26 07:07:23;;;;;;;1.00;1.00;;;;;;;12.65;75.52;96004.41;4992316;28;20519;-60
2023/02/26 07:09:50;;;;;;;1.00;1.00;;;;;;;13.34;75.07;96057.81;5003477;28;20081;-60
2023/02/26 07:12:16;;;;;;;1.10;1.10;;;;;;;13.10;74.42;95986.53;4980481;28;20484;-58
2023/02/26 07:14:44;;;;;;;1.30;1.30;;;;;;;13.94;73.79;96029.31;5003261;28;20164;-57
2023/02/26 07:17:19;;;;;;;1.20;1.20;;;;;;;13.68;73.54;96011.38;5004862;28;20062;-59
2023/02/26 07:19:47;;;;;;;1.20;1.20;;;;;;;14.04;73.53;96027.63;5004943;28;20492;-59
2023/02/26 07:22:15;;;;;;;1.27;1.27;;;;;;;14.55;73.32;96060.78;5004027;28;20949;-56
2023/02/26 07:24:42;;;;;;;1.23;1.23;;;;;;;14.98;72.21;96062.50;5004546;28;20107;-59
2023/02/26 07:27:09;;;;;;;1.30;1.30;;;;;;;15.21;70.71;96047.78;5004798;28;20050;-56
2023/02/26 07:29:35;;;;;;;1.23;1.23;;;;;;;15.07;69.87;95983.88;5004041;28;20317;-56
2023/02/26 07:32:03;;;;;;;1.42;1.42;;;;;;;15.54;70.20;96063.56;5003943;28;20046;-57
2023/02/26 07:34:30;;;;;;;1.50;1.50;;;;;;;15.70;70.92;96055.31;5003960;28;20058;-57
2023/02/26 07:36:58;;;;;;;1.50;1.50;;;;;;;16.06;69.68;96049.84;5002555;28;20750;-60
2023/02/26 07:39:26;;;;;;;1.33;1.33;;;;;;;16.27;70.02;96044.56;5004318;28;20061;-61
2023/02/26 07:41:53;;;;;;;1.55;1.55;;;;;;;16.31;70.23;96022.91;5004306;28;20108;-58
2023/02/26 07:44:20;;;;;;;1.67;1.67;;;;;;;16.92;68.67;96044.75;5004218;28;20049;-56
2023/02/26 07:46:46;;;;;;;1.70;1.70;;;;;;;17.17;65.71;96000.16;5004198;28;20592;-59
2023/02/26 07:49:13;;;;;;;1.60;1.60;;;;;;;16.90;65.62;95996.84;5003844;28;20122;-60
2023/02/26 07:51:44;;;;;;;1.73;1.73;;;;;;;17.21;65.25;96037.25;5003545;28;20614;-58
2023/02/26 07:54:12;;;;;;;1.73;1.73;;;;;;;17.11;64.77;96041.09;5004501;28;20053;-56
2023/02/26 07:56:40;;;;;;;1.75;1.75;;;;;;;17.06;64.64;96022.00;5004065;28;20108;-60
2023/02/26 07:59:06;;;;;;;1.70;1.70;;;;;;;17.25;64.28;96046.31;5003688;28;20133;-60
2023/02/26 08:01:33;;;;;;;1.58;1.58;;;;;;;16.63;64.64;95999.09;5004081;28;20065;-58
2023/02/26 08:04:00;;;;;;;1.60;1.60;;;;;;;16.87;64.09;96031.28;5002750;28;20147;-60
2023/02/26 08:06:28;;;;;;;1.42;1.42;;;;;;;17.00;63.89;96040.56;5006443;28;20064;-61
2023/02/26 08:08:55;;;;;;;1.73;1.73;;;;;;;16.92;64.24;96022.34;5007681;28;20521;-60
2023/02/26 08:11:21;;;;;;;1.70;1.70;;;;;;;16.77;61.61;95993.16;5007854;28;20107;-60
2023/02/26 08:13:48;;;;;;;1.80;1.80;;;;;;;16.79;57.83;96035.47;5007690;28;20465;-62
2023/02/26 08:16:15;;;;;;;1.55;1.55;;;;;;;16.97;57.45;96047.03;5007827;28;20460;-58
2023/02/26 08:18:41;;;;;;;1.70;1.70;;;;;;;17.13;56.92;96044.25;5007731;28;20137;-57
2023/02/26 08:21:09;;;;;;;1.60;1.60;;;;;;;17.20;56.09;96052.47;5023163;28;20069;-59
2023/02/26 08:23:36;;;;;;;1.75;1.75;;;;;;;17.07;55.77;96051.59;5006375;28;20080;-58
2023/02/26 08:26:06;;;;;;;1.52;1.52;;;;;;;17.08;55.85;96047.56;5007723;28;20057;-59
2023/02/26 08:28:33;;;;;;;1.70;1.70;;;;;;;16.97;56.32;96024.66;5007519;28;20092;-58
2023/02/26 08:31:00;;;;;;;1.70;1.70;;;;;;;17.04;56.56;96041.28;5007477;28;20516;-58
2023/02/26 08:33:28;;;;;;;1.63;1.63;;;;;;;17.00;55.43;96046.16;5007074;28;20124;-61
2023/02/26 08:35:56;;;;;;;1.83;1.83;;;;;;;17.09;55.93;96040.72;5007566;28;20054;-59
2023/02/26 08:38:24;;;;;;;1.80;1.80;;;;;;;17.22;55.62;96030.41;5007600;28;20132;-58
2023/02/26 08:40:51;;;;;;;1.65;1.65;;;;;;;17.47;54.59;96039.78;5005190;28;20058;-58
2023/02/26 08:43:19;;;;;;;1.60;1.60;;;;;;;17.34;55.01;96019.28;4987793;28;20058;-61
2023/02/26 08:45:46;;;;;;;1.60;1.60;;;;;;;17.28;55.36;96014.66;4987460;28;20058;-59
2023/02/26 08:48:13;;;;;;;1.73;1.73;;;;;;;17.37;55.55;96003.66;4986478;28;20058;-61
2023/02/26 08:50:40;;;;;;;1.63;1.63;;;;;;;17.66;55.19;96022.06;4986548;28;20078;-59
2023/02/26 08:53:07;;;;;;;1.60;1.60;;;;;;;17.88;55.09;96005.47;4986586;28;20059;-56
2023/02/26 08:55:34;;;;;;;1.70;1.70;;;;;;;17.79;55.29;96019.31;4986469;28;20157;-56
2023/02/26 08:58:00;;;;;;;1.63;1.63;;;;;;;17.88;54.86;96011.06;4986534;28;20177;-58
2023/02/26 09:00:27;;;;;;;1.85;1.85;;;;;;;17.57;55.38;95962.31;4986883;28;20165;-56
2023/02/26 09:02:54;;;;;;;2.00;2.00;;;;;;;17.59;54.27;95937.47;4987013;28;20062;-56
2023/02/26 09:05:21;;;;;;;1.52;1.52;;;;;;;17.94;54.13;95989.69;4987801;28;20508;-58
2023/02/26 09:07:48;;;;;;;1.67;1.67;;;;;;;18.03;53.30;95970.22;4986990;28;20113;-57
2023/02/26 09:10:15;;;;;;;1.67;1.67;;;;;;;18.37;52.75;95987.19;4987244;28;20497;-57
2023/02/26 09:12:42;;;;;;;1.65;1.65;;;;;;;18.18;52.15;95960.13;4986943;28;20061;-57
2023/02/26 09:15:10;;;;;;;1.52;1.52;;;;;;;18.41;51.73;95976.72;4986925;28;20480;-57
2023/02/26 09:17:37;;;;;;;1.77;1.77;;;;;;;18.37;51.39;95975.97;4986333;28;20096;-60
2023/02/26 09:20:04;;;;;;;1.90;1.90;;;;;;;17.85;52.68;95959.50;4985665;28;20526;-57
2023/02/26 09:22:31;;;;;;;1.70;1.70;;;;;;;18.01;52.81;95975.47;4987395;28;20054;-60
2023/02/26 09:24:57;;;;;;;1.90;1.90;;;;;;;18.08;51.92;95969.66;4987203;28;20054;-57
2023/02/26 09:27:24;;;;;;;1.58;1.58;;;;;;;18.17;52.33;95967.00;4985871;28;20058;-59
2023/02/26 09:29:51;;;;;;;1.80;1.80;;;;;;;18.27;52.38;95960.28;5002116;28;20518;-57
2023/02/26 09:32:17;;;;;;;1.90;1.90;;;;;;;18.24;52.37;95977.97;5001666;28;20104;-58
2023/02/26 09:34:44;;;;;;;1.95;1.95;;;;;;;18.03;51.85;95905.75;5006168;28;20093;-58
2023/02/26 09:37:11;;;;;;;1.77;1.77;;;;;;;18.18;52.09;95985.38;5006750;28;20053;-56
2023/02/26 09:39:37;;;;;;;1.90;1.90;;;;;;;17.69;52.40;95950.38;5006476;28;20108;-57
2023/02/26 09:42:35;;;;;;;1.95;1.95;;;;;;;18.04;52.85;95975.38;5006472;28;20077;-60
2023/02/26 09:45:03;;;;;;;1.88;1.88;;;;;;;17.65;53.81;95935.69;5006133;28;20112;-61
2023/02/26 09:47:40;;;;;;;1.90;1.90;;;;;;;17.73;53.76;95987.50;5005661;28;20120;-57
2023/02/26 09:50:35;;;;;;;1.83;1.83;;;;;;;17.39;53.92;95939.59;5005845;28;20050;-57
2023/02/26 09:53:10;;;;;;;1.70;1.70;;;;;;;17.77;54.02;95976.97;5006334;28;20377;-57
2023/02/26 09:55:42;;;;;;;1.90;1.90;;;;;;;17.79;53.46;95980.09;5005613;28;20602;-57
2023/02/26 09:58:38;;;;;;;1.75;1.75;;;;;;;17.74;53.92;95989.84;5006084;28;20781;-56
2023/02/26 10:01:28;;;;;;;1.50;1.50;;;;;;;17.43;54.37;95962.69;5005336;28;20524;-60
2023/02/26 10:04:10;;;;;;;1.80;1.80;;;;;;;17.86;54.27;95977.13;5005771;28;20145;-59
2023/02/26 10:06:46;;;;;;;1.70;1.70;;;;;;;18.14;52.96;95981.91;5004273;28;20054;-59
2023/02/26 10:09:34;;;;;;;1.83;1.83;;;;;;;18.59;51.74;95960.09;5005775;28;20065;-59
2023/02/26 10:12:09;;;;;;;1.90;1.90;;;;;;;18.60;51.51;95956.06;5006033;28;20057;-60
2023/02/26 10:14:43;;;;;;;1.80;1.80;;;;;;;18.82;51.47;95968.19;5005619;28;20073;-57
2023/02/26 10:17:51;;;;;;;1.90;1.90;;;;;;;18.75;50.53;95967.59;5006110;28;20061;-58
2023/02/26 10:20:28;;;;;;;1.90;1.90;;;;;;;18.60;51.98;95967.28;5004805;28;20058;-59
2023/02/26 10:23:00;;;;;;;1.90;1.90;;;;;;;18.93;51.52;95965.81;4986348;28;20050;-58
2023/02/26 10:25:36;;;;;;;1.90;1.90;;;;;;;19.06;50.92;95977.78;4985678;28;20057;-61
2023/02/26 10:28:21;;;;;;;2.10;2.10;;;;;;;19.20;50.52;95968.91;4986061;28;20050;-57
2023/02/26 10:30:55;;;;;;;2.03;2.03;;;;;;;19.32;49.81;95975.75;4984931;28;20517;-59
2023/02/26 10:33:47;;;;;;;2.08;2.08;;;;;;;19.32;49.97;95965.31;5004208;28;20064;-58
2023/02/26 10:36:39;;;;;;;1.85;1.85;;;;;;;19.21;49.49;95967.66;5005285;28;20054;-56
2023/02/26 10:39:43;;;;;;;1.90;1.90;;;;;;;19.14;49.97;95962.28;5005216;28;20360;-58
2023/02/26 10:42:20;;;;;;;2.00;2.00;;;;;;;18.59;50.46;95915.22;5005417;28;20161;-59
2023/02/26 10:45:05;;;;;;;1.80;1.80;;;;;;;19.02;50.57;95959.50;5004892;28;20042;-59
2023/02/26 10:47:53;;;;;;;1.95;1.95;;;;;;;18.65;50.65;95969.50;5005615;28;20046;-60
2023/02/26 10:50:22;;;;;;;1.90;1.90;;;;;;;18.33;51.47;95952.09;5004624;28;20080;-57
2023/02/26 10:52:50;;;;;;;1.73;1.73;;;;;;;18.26;51.16;95905.44;5004983;28;20093;-60
2023/02/26 10:55:29;;;;;;;1.90;1.90;;;;;;;18.42;50.65;95953.03;5005112;28;20057;-61
2023/02/26 10:58:03;;;;;;;1.90;1.90;;;;;;;18.42;49.92;95961.44;5003899;28;20564;-58
2023/02/26 11:00:34;;;;;;;1.80;1.80;;;;;;;18.58;50.07;95950.13;5004986;28;20589;-58
2023/02/26 11:03:03;;;;;;;1.77;1.77;;;;;;;18.64;49.76;95956.72;5004951;28;20086;-59
2023/02/26 11:05:32;;;;;;;1.60;1.60;;;;;;;18.51;50.33;95955.94;5003223;28;20485;-61
2023/02/26 11:08:26;;;;;;;1.65;1.65;;;;;;;18.21;51.51;95961.28;5002539;28;20184;-59
2023/02/26 11:11:01;;;;;;;1.90;1.90;;;;;;;18.17;52.06;95967.00;5003481;28;20056;-57
2023/02/26 11:13:32;;;;;;;1.90;1.90;;;;;;;17.85;52.71;95920.28;5002836;28;20573;-58
2023/02/26 11:16:09;;;;;;;1.70;1.70;;;;;;;18.09;52.90;95976.84;5003769;28;20089;-58
2023/02/26 11:18:42;;;;;;;2.05;2.05;;;;;;;18.24;52.30;95966.00;5004933;28;20046;-58
2023/02/26 11:21:17;;;;;;;2.00;2.00;;;;;;;18.24;52.75;95961.16;5004275;28;20050;-58
2023/02/26 11:23:46;;;;;;;1.58;1.58;;;;;;;18.27;52.87;95968.69;5004623;28;20133;-57
2023/02/26 11:26:17;;;;;;;1.90;1.90;;;;;;;18.35;52.20;95932.81;5002660;28;20509;-59
2023/02/26 11:28:49;;;;;;;1.70;1.70;;;;;;;18.74;51.21;95961.22;5002978;28;20151;-58
2023/02/26 11:31:18;;;;;;;1.70;1.70;;;;;;;18.53;50.71;95849.72;5002978;28;20056;-60
2023/02/26 11:33:50;;;;;;;1.90;1.90;;;;;;;18.95;50.63;95960.50;5003678;28;20073;-61
2023/02/26 11:36:19;;;;;;;1.70;1.70;;;;;;;18.46;50.74;95878.00;5003365;28;20639;-59
2023/02/26 11:38:55;;;;;;;1.77;1.77;;;;;;;18.96;50.57;95978.94;5004171;28;20049;-56
2023/02/26 11:41:24;;;;;;;2.00;2.00;;;;;;;18.87;50.79;95975.25;5003794;28;20072;-61
2023/02/26 11:44:12;;;;;;;1.95;1.95;;;;;;;18.89;50.59;95962.31;5004866;28;20100;-59
2023/02/26 11:46:48;;;;;;;2.08;2.08;;;;;;;18.64;50.67;95959.53;5004306;28;20062;-60
2023/02/26 11:49:18;;;;;;;1.80;1.80;;;;;;;18.46;51.22;95967.75;5003020;28;20120;-58
2023/02/26 11:51:46;;;;;;;2.00;2.00;;;;;;;18.42;51.50;95967.03;5004150;28;20085;-60
2023/02/26 11:54:23;;;;;;;1.77;1.77;;;;;;;18.60;51.08;95964.50;4984927;28;20497;-60
2023/02/26 11:56:49;;;;;;;1.83;1.83;;;;;;;18.29;50.72;95957.78;4982913;28;20058;-60
2023/02/26 11:59:23;;;;;;;1.98;1.98;;;;;;;17.94;50.93;95902.84;4982859;28;20120;-59
2023/02/26 12:01:51;;;;;;;1.73;1.73;;;;;;;18.46;51.11;95967.75;4984496;28;20073;-60